sensor_id;sensor_type;location;lat;lon;timestamp;pressure;altitude;pressure_sealevel;temperature;humidity
2268;BME280;11052;43.338;25.502;2023-04-24T00:00:54;100350.19;;;11.30;100.00
2268;BME280;11052;43.338;25.502;2023-04-24T00:03:22;100348.50;;;11.29;100.00
2268;BME280;11052;43.338;25.502;2023-04-24T00:05:49;100345.06;;;11.28;100.00
2268;BME280;11052;43.338;25.502;2023-04-24T00:08:18;100344.28;;;11.26;100.00
2268;BME280;11052;43.338;25.502;2023-04-24T00:10:45;100342.47;;;11.28;100.00
2268;BME280;11052;43.338;25.502;2023-04-24T00:13:12;100334.72;;;11.27;100.00
2268;BME280;11052;43.338;25.502;2023-04-24T00:15:39;100332.06;;;11.28;100.00
2268;BME280;11052;43.338;25.502;2023-04-24T00:18:06;100330.22;;;11.32;100.00
2268;BME280;11052;43.338;25.502;2023-04-24T00:20:34;100333.69;;;11.32;100.00
2268;BME280;11052;43.338;25.502;2023-04-24T00:23:02;100337.50;;;11.22;100.00
2268;BME280;11052;43.338;25.502;2023-04-24T00:25:31;100338.16;;;11.01;100.00
2268;BME280;11052;43.338;25.502;2023-04-24T00:27:58;100344.19;;;11.01;100.00
2268;BME280;11052;43.338;25.502;2023-04-24T00:30:25;100343.16;;;11.07;100.00
2268;BME280;11052;43.338;25.502;2023-04-24T00:32:52;100335.38;;;11.07;100.00
2268;BME280;11052;43.338;25.502;2023-04-24T00:35:19;100338.63;;;11.13;100.00
2268;BME280;11052;43.338;25.502;2023-04-24T00:37:46;100335.94;;;11.16;100.00
2268;BME280;11052;43.338;25.502;2023-04-24T00:40:14;100342.41;;;11.03;100.00
2268;BME280;11052;43.338;25.502;2023-04-24T00:42:43;100340.53;;;11.08;100.00
2268;BME280;11052;43.338;25.502;2023-04-24T00:45:10;100338.91;;;11.04;100.00
2268;BME280;11052;43.338;25.502;2023-04-24T00:47:38;100334.47;;;11.08;100.00
2268;BME280;11052;43.338;25.502;2023-04-24T00:50:07;100328.72;;;11.26;100.00
2268;BME280;11052;43.338;25.502;2023-04-24T00:52:34;100328.81;;;11.23;100.00
2268;BME280;11052;43.338;25.502;2023-04-24T00:55:02;100338.72;;;11.10;100.00
2268;BME280;11052;43.338;25.502;2023-04-24T00:57:31;100338.06;;;11.04;100.00
2268;BME280;11052;43.338;25.502;2023-04-24T00:59:59;100336.50;;;10.98;100.00
2268;BME280;11052;43.338;25.502;2023-04-24T01:02:26;100340.06;;;10.96;100.00
2268;BME280;11052;43.338;25.502;2023-04-24T01:04:55;100336.56;;;10.97;100.00
2268;BME280;11052;43.338;25.502;2023-04-24T01:07:22;100332.50;;;10.88;100.00
2268;BME280;11052;43.338;25.502;2023-04-24T01:09:50;100335.28;;;10.82;100.00
2268;BME280;11052;43.338;25.502;2023-04-24T01:12:17;100333.72;;;10.76;100.00
2268;BME280;11052;43.338;25.502;2023-04-24T01:14:45;100327.13;;;10.94;100.00
2268;BME280;11052;43.338;25.502;2023-04-24T01:17:13;100330.56;;;10.95;100.00
2268;BME280;11052;43.338;25.502;2023-04-24T01:19:40;100330.81;;;10.87;100.00
2268;BME280;11052;43.338;25.502;2023-04-24T01:22:13;100322.97;;;10.89;100.00
2268;BME280;11052;43.338;25.502;2023-04-24T01:24:40;100324.72;;;10.88;100.00
2268;BME280;11052;43.338;25.502;2023-04-24T01:27:09;100317.22;;;10.79;100.00
2268;BME280;11052;43.338;25.502;2023-04-24T01:29:36;100316.16;;;10.86;100.00
2268;BME280;11052;43.338;25.502;2023-04-24T01:32:04;100315.59;;;10.76;100.00
2268;BME280;11052;43.338;25.502;2023-04-24T01:34:32;100319.78;;;10.80;100.00
2268;BME280;11052;43.338;25.502;2023-04-24T01:36:59;100312.28;;;10.99;100.00
2268;BME280;11052;43.338;25.502;2023-04-24T01:39:28;100313.19;;;10.98;100.00
2268;BME280;11052;43.338;25.502;2023-04-24T01:41:56;100304.41;;;11.02;100.00
2268;BME280;11052;43.338;25.502;2023-04-24T01:44:23;100312.41;;;10.95;100.00
2268;BME280;11052;43.338;25.502;2023-04-24T01:46:50;100303.00;;;10.92;100.00
2268;BME280;11052;43.338;25.502;2023-04-24T01:49:19;100300.59;;;10.86;100.00
2268;BME280;11052;43.338;25.502;2023-04-24T01:51:46;100297.00;;;10.90;100.00
2268;BME280;11052;43.338;25.502;2023-04-24T01:54:14;100301.63;;;10.80;100.00
2268;BME280;11052;43.338;25.502;2023-04-24T01:56:42;100295.41;;;10.86;100.00
2268;BME280;11052;43.338;25.502;2023-04-24T01:59:11;100290.22;;;10.86;100.00
2268;BME280;11052;43.338;25.502;2023-04-24T02:01:38;100292.63;;;10.92;100.00
2268;BME280;11052;43.338;25.502;2023-04-24T02:04:06;100282.38;;;10.88;100.00
2268;BME280;11052;43.338;25.502;2023-04-24T02:06:34;100292.81;;;10.86;100.00
2268;BME280;11052;43.338;25.502;2023-04-24T02:09:01;100290.06;;;10.91;100.00
2268;BME280;11052;43.338;25.502;2023-04-24T02:11:29;100288.75;;;10.77;100.00
2268;BME280;11052;43.338;25.502;2023-04-24T02:13:57;100288.94;;;10.71;100.00
2268;BME280;11052;43.338;25.502;2023-04-24T02:16:24;100278.38;;;10.77;100.00
2268;BME280;11052;43.338;25.502;2023-04-24T02:18:51;100280.75;;;10.85;100.00
2268;BME280;11052;43.338;25.502;2023-04-24T02:21:18;100274.94;;;10.77;100.00
2268;BME280;11052;43.338;25.502;2023-04-24T02:23:45;100278.56;;;10.71;100.00
2268;BME280;11052;43.338;25.502;2023-04-24T02:26:12;100272.97;;;10.57;100.00
2268;BME280;11052;43.338;25.502;2023-04-24T02:28:40;100275.00;;;10.75;100.00
2268;BME280;11052;43.338;25.502;2023-04-24T02:31:09;100272.50;;;10.72;100.00
2268;BME280;11052;43.338;25.502;2023-04-24T02:33:36;100274.72;;;10.84;100.00
2268;BME280;11052;43.338;25.502;2023-04-24T02:36:03;100270.97;;;10.65;100.00
2268;BME280;11052;43.338;25.502;2023-04-24T02:38:30;100274.22;;;10.44;100.00
2268;BME280;11052;43.338;25.502;2023-04-24T02:40:58;100269.00;;;10.45;100.00
2268;BME280;11052;43.338;25.502;2023-04-24T02:43:26;100265.81;;;10.37;100.00
2268;BME280;11052;43.338;25.502;2023-04-24T02:45:53;100268.53;;;10.33;100.00
2268;BME280;11052;43.338;25.502;2023-04-24T02:48:22;100264.28;;;10.30;100.00
2268;BME280;11052;43.338;25.502;2023-04-24T02:50:49;100261.00;;;10.25;100.00
2268;BME280;11052;43.338;25.502;2023-04-24T02:53:16;100263.34;;;10.33;100.00
2268;BME280;11052;43.338;25.502;2023-04-24T02:55:43;100262.28;;;10.40;100.00
2268;BME280;11052;43.338;25.502;2023-04-24T02:58:11;100259.94;;;10.59;100.00
2268;BME280;11052;43.338;25.502;2023-04-24T03:00:39;100267.72;;;10.59;100.00
2268;BME280;11052;43.338;25.502;2023-04-24T03:03:06;100261.78;;;10.27;100.00
2268;BME280;11052;43.338;25.502;2023-04-24T03:05:35;100257.06;;;10.10;100.00
2268;BME280;11052;43.338;25.502;2023-04-24T03:08:02;100265.94;;;10.02;100.00
2268;BME280;11052;43.338;25.502;2023-04-24T03:10:29;100260.31;;;9.88;100.00
2268;BME280;11052;43.338;25.502;2023-04-24T03:12:57;100258.47;;;9.60;100.00
2268;BME280;11052;43.338;25.502;2023-04-24T03:15:24;100269.81;;;9.54;100.00
2268;BME280;11052;43.338;25.502;2023-04-24T03:17:51;100262.34;;;9.45;100.00
2268;BME280;11052;43.338;25.502;2023-04-24T03:20:19;100260.84;;;9.37;100.00
2268;BME280;11052;43.338;25.502;2023-04-24T03:22:47;100260.22;;;9.27;100.00
2268;BME280;11052;43.338;25.502;2023-04-24T03:25:14;100264.44;;;9.31;100.00
2268;BME280;11052;43.338;25.502;2023-04-24T03:27:42;100262.72;;;9.30;100.00
2268;BME280;11052;43.338;25.502;2023-04-24T03:30:09;100263.06;;;9.16;100.00
2268;BME280;11052;43.338;25.502;2023-04-24T03:32:36;100258.47;;;8.94;100.00
2268;BME280;11052;43.338;25.502;2023-04-24T03:35:05;100263.00;;;8.84;100.00
2268;BME280;11052;43.338;25.502;2023-04-24T03:37:33;100267.06;;;8.94;100.00
2268;BME280;11052;43.338;25.502;2023-04-24T03:40:02;100268.44;;;9.09;100.00
2268;BME280;11052;43.338;25.502;2023-04-24T03:42:29;100266.47;;;9.18;100.00
2268;BME280;11052;43.338;25.502;2023-04-24T03:44:56;100267.72;;;9.38;100.00
2268;BME280;11052;43.338;25.502;2023-04-24T03:47:23;100268.13;;;9.53;100.00
2268;BME280;11052;43.338;25.502;2023-04-24T03:49:50;100265.00;;;9.73;100.00
2268;BME280;11052;43.338;25.502;2023-04-24T03:52:17;100278.97;;;9.99;100.00
2268;BME280;11052;43.338;25.502;2023-04-24T03:54:44;100276.19;;;10.06;100.00
2268;BME280;11052;43.338;25.502;2023-04-24T03:57:13;100279.44;;;10.13;100.00
2268;BME280;11052;43.338;25.502;2023-04-24T03:59:43;100274.31;;;10.11;100.00
2268;BME280;11052;43.338;25.502;2023-04-24T04:02:10;100283.19;;;10.34;100.00
2268;BME280;11052;43.338;25.502;2023-04-24T04:04:38;100287.47;;;10.35;100.00
2268;BME280;11052;43.338;25.502;2023-04-24T04:07:05;100290.66;;;10.43;100.00
2268;BME280;11052;43.338;25.502;2023-04-24T04:09:33;100291.50;;;10.43;100.00
2268;BME280;11052;43.338;25.502;2023-04-24T04:12:00;100279.94;;;10.55;100.00
2268;BME280;11052;43.338;25.502;2023-04-24T04:14:28;100283.28;;;10.59;100.00
2268;BME280;11052;43.338;25.502;2023-04-24T04:16:56;100282.25;;;10.64;100.00
2268;BME280;11052;43.338;25.502;2023-04-24T04:19:23;100282.28;;;10.63;100.00
2268;BME280;11052;43.338;25.502;2023-04-24T04:21:50;100282.25;;;10.64;100.00
2268;BME280;11052;43.338;25.502;2023-04-24T04:24:19;100285.56;;;10.69;100.00
2268;BME280;11052;43.338;25.502;2023-04-24T04:26:48;100280.09;;;10.78;100.00
2268;BME280;11052;43.338;25.502;2023-04-24T04:29:16;100290.22;;;10.86;100.00
2268;BME280;11052;43.338;25.502;2023-04-24T04:31:45;100278.91;;;10.89;100.00
2268;BME280;11052;43.338;25.502;2023-04-24T04:34:12;100283.94;;;10.93;100.00
2268;BME280;11052;43.338;25.502;2023-04-24T04:36:40;100294.16;;;10.98;100.00
2268;BME280;11052;43.338;25.502;2023-04-24T04:39:07;100289.59;;;11.31;100.00
2268;BME280;11052;43.338;25.502;2023-04-24T04:41:34;100294.41;;;11.68;100.00
2268;BME280;11052;43.338;25.502;2023-04-24T04:44:01;100302.72;;;12.26;100.00
2268;BME280;11052;43.338;25.502;2023-04-24T04:46:30;100303.47;;;12.74;100.00
2268;BME280;11052;43.338;25.502;2023-04-24T04:49:01;100306.38;;;12.89;100.00
2268;BME280;11052;43.338;25.502;2023-04-24T04:51:28;100305.78;;;12.82;100.00
2268;BME280;11052;43.338;25.502;2023-04-24T04:53:56;100299.63;;;12.85;100.00
2268;BME280;11052;43.338;25.502;2023-04-24T04:56:23;100305.84;;;12.80;100.00
2268;BME280;11052;43.338;25.502;2023-04-24T04:58:51;100307.06;;;12.94;100.00
2268;BME280;11052;43.338;25.502;2023-04-24T05:01:18;100306.66;;;13.03;100.00
2268;BME280;11052;43.338;25.502;2023-04-24T05:03:46;100300.44;;;13.07;100.00
2268;BME280;11052;43.338;25.502;2023-04-24T05:06:15;100304.47;;;13.14;100.00
2268;BME280;11052;43.338;25.502;2023-04-24T05:08:42;100298.63;;;13.31;100.00
2268;BME280;11052;43.338;25.502;2023-04-24T05:11:09;100300.06;;;13.58;100.00
2268;BME280;11052;43.338;25.502;2023-04-24T05:13:36;100302.69;;;13.58;100.00
2268;BME280;11052;43.338;25.502;2023-04-24T05:16:04;100305.34;;;13.77;100.00
2268;BME280;11052;43.338;25.502;2023-04-24T05:18:31;100302.88;;;14.13;100.00
2268;BME280;11052;43.338;25.502;2023-04-24T05:20:58;100299.25;;;14.55;100.00
2268;BME280;11052;43.338;25.502;2023-04-24T05:23:27;100303.06;;;15.02;100.00
2268;BME280;11052;43.338;25.502;2023-04-24T05:25:54;100299.25;;;15.44;100.00
2268;BME280;11052;43.338;25.502;2023-04-24T05:28:21;100290.34;;;15.65;100.00
2268;BME280;11052;43.338;25.502;2023-04-24T05:30:48;100296.13;;;16.05;100.00
2268;BME280;11052;43.338;25.502;2023-04-24T05:33:15;100297.13;;;16.35;100.00
2268;BME280;11052;43.338;25.502;2023-04-24T05:35:42;100296.50;;;16.62;93.29
2268;BME280;11052;43.338;25.502;2023-04-24T05:38:12;100295.00;;;17.05;98.15
2268;BME280;11052;43.338;25.502;2023-04-24T05:40:40;100291.53;;;17.34;84.79
2268;BME280;11052;43.338;25.502;2023-04-24T05:43:07;100288.63;;;17.69;87.64
2268;BME280;11052;43.338;25.502;2023-04-24T05:45:34;100287.34;;;18.05;77.97
2268;BME280;11052;43.338;25.502;2023-04-24T05:48:02;100278.19;;;18.12;78.86
2268;BME280;11052;43.338;25.502;2023-04-24T05:50:29;100286.09;;;18.39;85.00
2268;BME280;11052;43.338;25.502;2023-04-24T05:52:56;100275.38;;;18.15;77.73
2268;BME280;11052;43.338;25.502;2023-04-24T05:55:24;100277.16;;;18.14;79.34
2268;BME280;11052;43.338;25.502;2023-04-24T05:57:53;100270.97;;;18.56;82.16
2268;BME280;11052;43.338;25.502;2023-04-24T06:00:20;100278.94;;;18.55;73.17
2268;BME280;11052;43.338;25.502;2023-04-24T06:02:47;100271.63;;;18.74;71.68
2268;BME280;11052;43.338;25.502;2023-04-24T06:05:15;100274.72;;;18.66;71.55
2268;BME280;11052;43.338;25.502;2023-04-24T06:07:43;100266.56;;;18.98;73.90
2268;BME280;11052;43.338;25.502;2023-04-24T06:10:10;100267.00;;;19.17;70.43
2268;BME280;11052;43.338;25.502;2023-04-24T06:12:38;100268.47;;;19.61;74.17
2268;BME280;11052;43.338;25.502;2023-04-24T06:15:08;100269.06;;;19.39;66.84
2268;BME280;11052;43.338;25.502;2023-04-24T06:17:35;100276.59;;;19.31;73.43
2268;BME280;11052;43.338;25.502;2023-04-24T06:20:03;100276.16;;;19.64;68.35
2268;BME280;11052;43.338;25.502;2023-04-24T06:22:31;100281.34;;;19.39;69.61
2268;BME280;11052;43.338;25.502;2023-04-24T06:24:59;100283.69;;;19.43;70.28
2268;BME280;11052;43.338;25.502;2023-04-24T06:27:27;100279.19;;;19.18;66.79
2268;BME280;11052;43.338;25.502;2023-04-24T06:29:57;100280.38;;;19.67;66.48
2268;BME280;11052;43.338;25.502;2023-04-24T06:32:26;100285.84;;;19.76;70.30
2268;BME280;11052;43.338;25.502;2023-04-24T06:34:54;100278.84;;;20.26;68.94
2268;BME280;11052;43.338;25.502;2023-04-24T06:37:21;100280.94;;;20.46;68.19
2268;BME280;11052;43.338;25.502;2023-04-24T06:39:48;100281.63;;;21.09;72.31
2268;BME280;11052;43.338;25.502;2023-04-24T06:42:16;100281.69;;;21.55;62.35
2268;BME280;11052;43.338;25.502;2023-04-24T06:44:43;100282.66;;;21.54;59.60
2268;BME280;11052;43.338;25.502;2023-04-24T06:47:10;100280.94;;;20.94;63.11
2268;BME280;11052;43.338;25.502;2023-04-24T06:49:40;100276.22;;;20.39;63.63
2268;BME280;11052;43.338;25.502;2023-04-24T06:52:08;100267.56;;;20.73;70.04
2268;BME280;11052;43.338;25.502;2023-04-24T06:54:35;100272.41;;;21.14;65.04
2268;BME280;11052;43.338;25.502;2023-04-24T06:57:02;100285.34;;;21.30;66.25
2268;BME280;11052;43.338;25.502;2023-04-24T06:59:29;100279.41;;;21.73;67.45
2268;BME280;11052;43.338;25.502;2023-04-24T07:01:56;100277.31;;;22.34;67.09
2268;BME280;11052;43.338;25.502;2023-04-24T07:04:24;100278.88;;;22.14;62.20
2268;BME280;11052;43.338;25.502;2023-04-24T07:06:52;100273.53;;;21.69;64.28
2268;BME280;11052;43.338;25.502;2023-04-24T07:09:23;100268.53;;;21.88;61.82
2268;BME280;11052;43.338;25.502;2023-04-24T07:11:51;100275.16;;;22.05;60.74
2268;BME280;11052;43.338;25.502;2023-04-24T07:14:19;100270.31;;;21.88;59.77
2268;BME280;11052;43.338;25.502;2023-04-24T07:16:46;100274.59;;;21.44;59.40
2268;BME280;11052;43.338;25.502;2023-04-24T07:19:13;100275.34;;;21.80;61.94
2268;BME280;11052;43.338;25.502;2023-04-24T07:21:40;100279.97;;;22.22;65.62
2268;BME280;11052;43.338;25.502;2023-04-24T07:24:09;100278.06;;;22.68;61.07
2268;BME280;11052;43.338;25.502;2023-04-24T07:26:37;100277.19;;;23.21;63.27
2268;BME280;11052;43.338;25.502;2023-04-24T07:29:04;100274.13;;;23.37;56.63
2268;BME280;11052;43.338;25.502;2023-04-24T07:31:32;100268.41;;;23.00;51.67
2268;BME280;11052;43.338;25.502;2023-04-24T07:33:59;100267.19;;;23.04;52.69
2268;BME280;11052;43.338;25.502;2023-04-24T07:36:26;100267.59;;;23.20;55.76
2268;BME280;11052;43.338;25.502;2023-04-24T07:38:54;100263.78;;;23.13;52.94
2268;BME280;11052;43.338;25.502;2023-04-24T07:41:23;100265.91;;;23.40;54.24
2268;BME280;11052;43.338;25.502;2023-04-24T07:43:51;100260.94;;;23.68;55.04
2268;BME280;11052;43.338;25.502;2023-04-24T07:46:19;100268.81;;;24.09;54.45
2268;BME280;11052;43.338;25.502;2023-04-24T07:48:47;100259.84;;;23.70;55.77
2268;BME280;11052;43.338;25.502;2023-04-24T07:51:14;100259.66;;;23.62;57.53
2268;BME280;11052;43.338;25.502;2023-04-24T07:53:41;100257.13;;;23.81;55.63
2268;BME280;11052;43.338;25.502;2023-04-24T07:56:08;100257.69;;;23.85;50.77
2268;BME280;11052;43.338;25.502;2023-04-24T07:58:37;100253.13;;;23.87;50.14
2268;BME280;11052;43.338;25.502;2023-04-24T08:01:04;100255.81;;;23.97;50.91
2268;BME280;11052;43.338;25.502;2023-04-24T08:03:31;100254.16;;;24.45;51.14
2268;BME280;11052;43.338;25.502;2023-04-24T08:05:58;100257.28;;;24.70;53.74
2268;BME280;11052;43.338;25.502;2023-04-24T08:08:26;100258.84;;;24.82;51.62
2268;BME280;11052;43.338;25.502;2023-04-24T08:10:53;100257.84;;;24.64;51.90
2268;BME280;11052;43.338;25.502;2023-04-24T08:13:20;100252.50;;;24.54;49.28
2268;BME280;11052;43.338;25.502;2023-04-24T08:15:49;100249.03;;;24.54;49.20
2268;BME280;11052;43.338;25.502;2023-04-24T08:18:16;100256.13;;;24.53;48.76
2268;BME280;11052;43.338;25.502;2023-04-24T08:20:43;100249.75;;;24.84;52.52
2268;BME280;11052;43.338;25.502;2023-04-24T08:23:10;100248.41;;;25.00;54.62
2268;BME280;11052;43.338;25.502;2023-04-24T08:25:37;100247.22;;;24.64;46.43
2268;BME280;11052;43.338;25.502;2023-04-24T08:28:05;100249.75;;;24.65;52.93
2268;BME280;11052;43.338;25.502;2023-04-24T08:30:33;100238.31;;;24.74;50.34
2268;BME280;11052;43.338;25.502;2023-04-24T08:33:01;100240.34;;;24.42;52.26
2268;BME280;11052;43.338;25.502;2023-04-24T08:35:28;100236.78;;;24.12;50.22
2268;BME280;11052;43.338;25.502;2023-04-24T08:37:55;100233.44;;;24.20;54.31
2268;BME280;11052;43.338;25.502;2023-04-24T08:40:27;100225.72;;;24.47;51.96
2268;BME280;11052;43.338;25.502;2023-04-24T08:42:55;100230.19;;;24.47;54.58
2268;BME280;11052;43.338;25.502;2023-04-24T08:45:24;100227.22;;;24.40;51.72
2268;BME280;11052;43.338;25.502;2023-04-24T08:47:52;100227.66;;;24.26;51.53
2268;BME280;11052;43.338;25.502;2023-04-24T08:50:22;100225.25;;;24.33;48.51
2268;BME280;11052;43.338;25.502;2023-04-24T08:52:50;100225.16;;;24.44;49.13
2268;BME280;11052;43.338;25.502;2023-04-24T08:55:19;100221.06;;;24.30;50.46
2268;BME280;11052;43.338;25.502;2023-04-24T08:57:50;100222.03;;;23.89;48.68
2268;BME280;11052;43.338;25.502;2023-04-24T09:00:19;100220.63;;;24.25;48.31
2268;BME280;11052;43.338;25.502;2023-04-24T09:02:48;100214.31;;;24.07;47.86
2268;BME280;11052;43.338;25.502;2023-04-24T09:05:17;100218.84;;;24.35;50.00
2268;BME280;11052;43.338;25.502;2023-04-24T09:07:49;100220.84;;;24.52;52.60
2268;BME280;11052;43.338;25.502;2023-04-24T09:10:21;100213.78;;;25.11;58.63
2268;BME280;11052;43.338;25.502;2023-04-24T09:12:50;100209.00;;;24.66;51.61
2268;BME280;11052;43.338;25.502;2023-04-24T09:15:18;100215.75;;;24.99;58.34
2268;BME280;11052;43.338;25.502;2023-04-24T09:17:46;100215.72;;;24.80;49.94
2268;BME280;11052;43.338;25.502;2023-04-24T09:20:13;100203.41;;;24.69;52.41
2268;BME280;11052;43.338;25.502;2023-04-24T09:22:41;100204.81;;;24.04;50.07
2268;BME280;11052;43.338;25.502;2023-04-24T09:25:10;100200.13;;;23.77;57.67
2268;BME280;11052;43.338;25.502;2023-04-24T09:27:42;100203.78;;;23.56;52.90
2268;BME280;11052;43.338;25.502;2023-04-24T09:30:11;100206.41;;;23.86;52.59
2268;BME280;11052;43.338;25.502;2023-04-24T09:32:38;100191.81;;;23.92;50.60
2268;BME280;11052;43.338;25.502;2023-04-24T09:35:09;100189.69;;;23.55;50.43
2268;BME280;11052;43.338;25.502;2023-04-24T09:37:37;100193.81;;;23.48;51.14
2268;BME280;11052;43.338;25.502;2023-04-24T09:40:14;100184.63;;;23.52;50.10
2268;BME280;11052;43.338;25.502;2023-04-24T09:42:45;100184.75;;;24.02;55.85
2268;BME280;11052;43.338;25.502;2023-04-24T09:45:13;100179.25;;;24.34;55.33
2268;BME280;11052;43.338;25.502;2023-04-24T09:47:41;100184.28;;;24.56;55.84
2268;BME280;11052;43.338;25.502;2023-04-24T09:50:13;100182.91;;;24.62;52.21
2268;BME280;11052;43.338;25.502;2023-04-24T09:52:42;100185.41;;;24.73;50.60
2268;BME280;11052;43.338;25.502;2023-04-24T09:55:21;100180.41;;;25.08;51.45
2268;BME280;11052;43.338;25.502;2023-04-24T09:57:49;100186.06;;;25.33;53.28
2268;BME280;11052;43.338;25.502;2023-04-24T10:00:24;100179.06;;;25.41;52.06
2268;BME280;11052;43.338;25.502;2023-04-24T10:02:56;100179.84;;;25.61;51.89
2268;BME280;11052;43.338;25.502;2023-04-24T10:05:26;100178.56;;;25.75;50.33
2268;BME280;11052;43.338;25.502;2023-04-24T10:07:56;100170.97;;;25.33;49.01
2268;BME280;11052;43.338;25.502;2023-04-24T10:10:25;100164.81;;;25.33;49.28
2268;BME280;11052;43.338;25.502;2023-04-24T10:12:53;100168.63;;;25.21;49.19
2268;BME280;11052;43.338;25.502;2023-04-24T10:15:21;100164.47;;;24.89;47.16
2268;BME280;11052;43.338;25.502;2023-04-24T10:17:49;100165.59;;;24.58;49.70
2268;BME280;11052;43.338;25.502;2023-04-24T10:20:23;100157.94;;;24.83;51.11
2268;BME280;11052;43.338;25.502;2023-04-24T10:22:51;100153.63;;;25.02;47.52
2268;BME280;11052;43.338;25.502;2023-04-24T10:25:20;100159.03;;;25.10;50.10
2268;BME280;11052;43.338;25.502;2023-04-24T10:27:50;100164.06;;;24.94;48.16
2268;BME280;11052;43.338;25.502;2023-04-24T10:30:17;100162.53;;;24.91;52.21
2268;BME280;11052;43.338;25.502;2023-04-24T10:32:45;100160.84;;;24.90;51.29
2268;BME280;11052;43.338;25.502;2023-04-24T10:35:13;100158.63;;;24.86;50.60
2268;BME280;11052;43.338;25.502;2023-04-24T10:37:44;100151.06;;;24.33;51.92
2268;BME280;11052;43.338;25.502;2023-04-24T10:40:17;100156.63;;;23.40;50.44
2268;BME280;11052;43.338;25.502;2023-04-24T10:42:51;100152.63;;;22.83;52.31
2268;BME280;11052;43.338;25.502;2023-04-24T10:45:18;100150.50;;;22.66;54.28
2268;BME280;11052;43.338;25.502;2023-04-24T10:47:56;100150.25;;;23.01;51.42
2268;BME280;11052;43.338;25.502;2023-04-24T10:50:26;100148.69;;;22.98;53.28
2268;BME280;11052;43.338;25.502;2023-04-24T10:53:05;100144.84;;;23.02;51.60
2268;BME280;11052;43.338;25.502;2023-04-24T10:55:47;100136.38;;;23.08;53.83
2268;BME280;11052;43.338;25.502;2023-04-24T10:58:17;100143.28;;;22.79;50.94
2268;BME280;11052;43.338;25.502;2023-04-24T11:00:56;100146.13;;;22.23;50.26
2268;BME280;11052;43.338;25.502;2023-04-24T11:03:25;100130.97;;;22.36;50.88
2268;BME280;11052;43.338;25.502;2023-04-24T11:05:56;100129.38;;;22.45;51.32
2268;BME280;11052;43.338;25.502;2023-04-24T11:08:25;100130.22;;;22.66;49.70
2268;BME280;11052;43.338;25.502;2023-04-24T11:11:04;100133.75;;;22.55;49.70
2268;BME280;11052;43.338;25.502;2023-04-24T11:14:03;100130.34;;;22.65;51.52
2268;BME280;11052;43.338;25.502;2023-04-24T11:16:35;100138.69;;;22.81;51.89
2268;BME280;11052;43.338;25.502;2023-04-24T11:19:05;100118.66;;;22.99;51.78
2268;BME280;11052;43.338;25.502;2023-04-24T11:21:40;100121.66;;;23.15;49.82
2268;BME280;11052;43.338;25.502;2023-04-24T11:24:24;100118.03;;;22.75;51.04
2268;BME280;11052;43.338;25.502;2023-04-24T11:26:53;100119.06;;;22.63;56.00
2268;BME280;11052;43.338;25.502;2023-04-24T11:29:22;100114.59;;;22.63;55.09
2268;BME280;11052;43.338;25.502;2023-04-24T11:31:50;100107.91;;;22.38;52.70
2268;BME280;11052;43.338;25.502;2023-04-24T11:34:17;100111.97;;;22.42;55.63
2268;BME280;11052;43.338;25.502;2023-04-24T11:36:46;100109.31;;;22.42;53.36
2268;BME280;11052;43.338;25.502;2023-04-24T11:39:13;100106.16;;;22.69;57.23
2268;BME280;11052;43.338;25.502;2023-04-24T11:41:41;100105.31;;;23.01;54.64
2268;BME280;11052;43.338;25.502;2023-04-24T11:44:09;100105.69;;;23.17;54.96
2268;BME280;11052;43.338;25.502;2023-04-24T11:46:38;100101.00;;;22.68;54.56
2268;BME280;11052;43.338;25.502;2023-04-24T11:49:05;100093.47;;;22.63;56.40
2268;BME280;11052;43.338;25.502;2023-04-24T11:51:34;100090.69;;;22.65;54.18
2268;BME280;11052;43.338;25.502;2023-04-24T11:54:01;100085.31;;;22.87;55.05
2268;BME280;11052;43.338;25.502;2023-04-24T11:56:28;100086.59;;;22.51;51.60
2268;BME280;11052;43.338;25.502;2023-04-24T11:58:56;100077.41;;;22.55;54.63
2268;BME280;11052;43.338;25.502;2023-04-24T12:01:23;100081.28;;;22.72;54.31
2268;BME280;11052;43.338;25.502;2023-04-24T12:04:00;100071.09;;;22.67;52.03
2268;BME280;11052;43.338;25.502;2023-04-24T12:06:27;100077.47;;;22.23;54.20
2268;BME280;11052;43.338;25.502;2023-04-24T12:08:54;100074.28;;;22.08;53.53
2268;BME280;11052;43.338;25.502;2023-04-24T12:11:23;100070.84;;;22.29;55.50
2268;BME280;11052;43.338;25.502;2023-04-24T12:13:51;100072.44;;;22.62;54.09
2268;BME280;11052;43.338;25.502;2023-04-24T12:16:18;100069.34;;;22.56;53.93
2268;BME280;11052;43.338;25.502;2023-04-24T12:18:45;100064.50;;;22.52;53.63
2268;BME280;11052;43.338;25.502;2023-04-24T12:21:18;100056.22;;;22.45;53.53
2268;BME280;11052;43.338;25.502;2023-04-24T12:23:46;100055.44;;;22.54;53.79
2268;BME280;11052;43.338;25.502;2023-04-24T12:26:16;100052.78;;;22.54;53.43
2268;BME280;11052;43.338;25.502;2023-04-24T12:28:47;100045.28;;;22.50;54.96
2268;BME280;11052;43.338;25.502;2023-04-24T12:31:15;100043.66;;;22.58;56.13
2268;BME280;11052;43.338;25.502;2023-04-24T12:33:43;100040.50;;;22.65;54.80
2268;BME280;11052;43.338;25.502;2023-04-24T12:36:11;100041.91;;;22.69;54.76
2268;BME280;11052;43.338;25.502;2023-04-24T12:38:44;100029.84;;;22.76;57.08
2268;BME280;11052;43.338;25.502;2023-04-24T12:41:13;100031.53;;;22.77;58.00
2268;BME280;11052;43.338;25.502;2023-04-24T12:43:51;100023.00;;;22.73;59.60
2268;BME280;11052;43.338;25.502;2023-04-24T12:46:18;100023.97;;;22.72;58.88
2268;BME280;11052;43.338;25.502;2023-04-24T12:48:45;100017.47;;;22.76;55.88
2268;BME280;11052;43.338;25.502;2023-04-24T12:51:13;100014.34;;;22.82;55.13